Terminal Aerodrome Forecast
Issued by NWS

Home | Current Version | Previous Version | Text Only | Print | Product List | Glossary On
Versions: 1 2 3 4 5 6 7 8 9 10 11 12 13 14 15 16
000
FTUS43 KLSX 051700
TAFCPS
TAF
KCPS 051720Z 0518/0618 20009G16KT P6SM SCT060 SCT250
     FM060000 18004KT P6SM FEW080
     FM061600 17012G22KT P6SM SCT050=

USA.gov is the U.S. government's official web portal to all federal, state and local government web resources and services.